createdAt,value
2022-10-05T00:00:29.560Z,101024.22
2022-10-05T00:02:59.375Z,101020.84
2022-10-05T00:05:30.354Z,101008.72
2022-10-05T00:08:02.714Z,101019.53
2022-10-05T00:10:30.622Z,101018.50
2022-10-05T00:12:58.320Z,101018.72
2022-10-05T00:15:26.046Z,101027.50
2022-10-05T00:17:53.772Z,101026.81
2022-10-05T00:20:25.611Z,101019.25
2022-10-05T00:22:58.285Z,101023.22
2022-10-05T00:25:26.450Z,101024.84
2022-10-05T00:27:57.291Z,101027.72
2022-10-05T00:30:26.953Z,101023.66
2022-10-05T00:32:59.272Z,101031.31
2022-10-05T00:35:30.829Z,101034.47
2022-10-05T00:37:58.629Z,101031.31
2022-10-05T00:40:36.439Z,101036.03
2022-10-05T00:43:20.493Z,101024.22
2022-10-05T00:45:52.691Z,101016.59
2022-10-05T00:48:32.645Z,101038.38
2022-10-05T00:51:16.300Z,101029.19
2022-10-05T00:53:53.531Z,101019.50
2022-10-05T00:56:34.624Z,101023.91
2022-10-05T00:59:12.095Z,101025.44
2022-10-05T01:01:45.879Z,101013.44
2022-10-05T01:04:21.711Z,101008.00
2022-10-05T01:07:05.208Z,101003.06
2022-10-05T01:09:43.079Z,101012.28
2022-10-05T01:12:20.014Z,101010.38
2022-10-05T01:14:56.986Z,100991.91
2022-10-05T01:17:30.422Z,101002.69
2022-10-05T01:20:12.822Z,101015.78
2022-10-05T01:23:02.268Z,101018.97
2022-10-05T01:25:38.292Z,101012.69
2022-10-05T01:28:13.302Z,101012.97
2022-10-05T01:30:45.773Z,101000.63
2022-10-05T01:33:20.144Z,100998.91
2022-10-05T01:35:56.140Z,101023.53
2022-10-05T01:38:40.735Z,101011.63
2022-10-05T01:41:19.511Z,101000.78
2022-10-05T01:43:53.105Z,101004.50
2022-10-05T01:46:29.714Z,101001.28
2022-10-05T01:49:14.804Z,101018.00
2022-10-05T01:51:55.133Z,101012.81
2022-10-05T01:54:33.555Z,101016.19
2022-10-05T01:57:10.241Z,101011.44
2022-10-05T01:59:54.243Z,100998.06
2022-10-05T02:02:24.801Z,100993.97
2022-10-05T02:05:02.074Z,100981.91
2022-10-05T02:07:35.418Z,100975.94
2022-10-05T02:10:09.947Z,100979.25
2022-10-05T02:12:39.316Z,100985.97
2022-10-05T02:15:15.036Z,100964.41
2022-10-05T02:17:46.776Z,100947.56
2022-10-05T02:20:21.838Z,100940.38
2022-10-05T02:22:52.874Z,100939.72
2022-10-05T02:25:23.951Z,100923.53
2022-10-05T02:27:57.897Z,100935.34
2022-10-05T02:30:29.810Z,100923.34
2022-10-05T02:33:02.232Z,100922.84
2022-10-05T02:35:29.955Z,100925.84
2022-10-05T02:38:10.361Z,100938.28
2022-10-05T02:40:48.810Z,100915.09
2022-10-05T02:43:26.120Z,100931.94
2022-10-05T02:46:02.447Z,100923.34
2022-10-05T02:48:41.376Z,100930.78
2022-10-05T02:51:20.840Z,100933.88
2022-10-05T02:54:00.307Z,100935.59
2022-10-05T02:56:34.207Z,100940.53
2022-10-05T02:59:09.718Z,100961.84
2022-10-05T03:01:45.409Z,100952.97
2022-10-05T03:04:26.854Z,100942.66
2022-10-05T03:07:00.068Z,100953.41
2022-10-05T03:09:32.561Z,100968.81
2022-10-05T03:12:10.752Z,100944.50
2022-10-05T03:14:50.387Z,100936.06
2022-10-05T03:17:21.963Z,100937.84
2022-10-05T03:20:08.399Z,100939.47
2022-10-05T03:22:49.184Z,100927.44
2022-10-05T03:25:41.930Z,100928.00
2022-10-05T03:28:16.375Z,100903.34
2022-10-05T03:30:50.449Z,100934.22
2022-10-05T03:33:27.079Z,100928.09
2022-10-05T03:36:04.395Z,100927.81
2022-10-05T03:38:42.617Z,100927.75
2022-10-05T03:41:17.397Z,100926.91
2022-10-05T03:44:09.164Z,100921.97
2022-10-05T03:46:48.392Z,100919.75
2022-10-05T03:49:28.621Z,100892.03
2022-10-05T03:52:02.217Z,100890.81
2022-10-05T03:54:36.095Z,100894.66
2022-10-05T03:57:10.721Z,100902.66
2022-10-05T03:59:44.075Z,100898.94
2022-10-05T04:02:20.969Z,100894.13
2022-10-05T04:04:54.214Z,100885.28
2022-10-05T04:07:42.771Z,100889.47
2022-10-05T04:10:17.662Z,100898.44
2022-10-05T04:12:50.740Z,100879.75
2022-10-05T04:15:28.181Z,100885.78
2022-10-05T04:18:01.699Z,100875.44
2022-10-05T04:20:38.003Z,100888.97
2022-10-05T04:23:14.770Z,100897.78
2022-10-05T04:25:46.898Z,100892.47
2022-10-05T04:28:31.070Z,100894.63
2022-10-05T04:31:04.677Z,100892.44
2022-10-05T04:33:33.109Z,100896.91
2022-10-05T04:36:16.867Z,100886.19
2022-10-05T04:38:53.672Z,100902.44
2022-10-05T04:41:42.897Z,100900.38
2022-10-05T04:44:23.978Z,100905.81
2022-10-05T04:47:08.360Z,100900.81
2022-10-05T04:50:00.276Z,100911.72
2022-10-05T04:52:37.686Z,100904.31
2022-10-05T04:55:13.481Z,100899.69
2022-10-05T04:57:48.675Z,100924.50
2022-10-05T05:00:23.615Z,100914.81
2022-10-05T05:03:17.672Z,100917.84
2022-10-05T05:06:16.434Z,100919.31
2022-10-05T05:09:11.167Z,100920.69
2022-10-05T05:11:53.873Z,100925.50
2022-10-05T05:14:44.695Z,100903.47
2022-10-05T05:17:27.742Z,100900.34
2022-10-05T05:20:04.895Z,100914.91
2022-10-05T05:22:39.143Z,100908.47
2022-10-05T05:25:30.122Z,100907.94
2022-10-05T05:28:04.956Z,100907.03
2022-10-05T05:30:41.893Z,100905.47
2022-10-05T05:33:20.033Z,100894.31
2022-10-05T05:36:11.933Z,100879.81
2022-10-05T05:38:43.870Z,100885.00
2022-10-05T05:41:15.320Z,100881.19
2022-10-05T05:43:54.138Z,100882.16
2022-10-05T05:47:01.931Z,100887.31
2022-10-05T05:49:19.153Z,100886.66
2022-10-05T05:51:53.290Z,100888.69
2022-10-05T05:54:32.426Z,100890.25
2022-10-05T05:57:10.893Z,100868.31
2022-10-05T05:59:52.587Z,100879.16
2022-10-05T06:02:24.672Z,100868.69
2022-10-05T06:04:58.233Z,100864.53
2022-10-05T06:07:30.990Z,100865.31
2022-10-05T06:10:05.847Z,100860.41
2022-10-05T06:12:41.407Z,100870.81
2022-10-05T06:15:19.542Z,100887.66
2022-10-05T06:17:52.720Z,100854.22
2022-10-05T06:20:28.804Z,100827.59
2022-10-05T06:22:59.887Z,100818.69
2022-10-05T06:25:38.745Z,100826.56
2022-10-05T06:28:12.284Z,100850.50
2022-10-05T06:30:52.966Z,100848.84
2022-10-05T06:33:43.638Z,100848.06
2022-10-05T06:36:21.627Z,100833.22
2022-10-05T06:39:05.689Z,100822.00
2022-10-05T06:41:47.602Z,100809.94
2022-10-05T06:44:22.804Z,100818.13
2022-10-05T06:46:57.767Z,100811.75
2022-10-05T06:49:32.315Z,100827.81
2022-10-05T06:52:09.755Z,100821.06
2022-10-05T06:54:46.819Z,100821.66
2022-10-05T06:57:30.771Z,100826.56
2022-10-05T07:00:02.948Z,100834.00
2022-10-05T07:02:37.454Z,100823.53
2022-10-05T07:05:35.704Z,100823.06
2022-10-05T07:08:10.803Z,100818.91
2022-10-05T07:10:48.910Z,100828.25
2022-10-05T07:13:35.062Z,100824.22
2022-10-05T07:16:13.505Z,100826.91
2022-10-05T07:18:51.430Z,100842.94
2022-10-05T07:21:28.829Z,100852.59
2022-10-05T07:24:04.519Z,100863.06
2022-10-05T07:26:36.727Z,100842.25
2022-10-05T07:29:22.501Z,100847.44
2022-10-05T07:32:01.111Z,100852.59
2022-10-05T07:34:41.031Z,100844.59
2022-10-05T07:37:31.030Z,100850.75
2022-10-05T07:40:09.789Z,100853.59
2022-10-05T07:42:52.259Z,100854.41
2022-10-05T07:45:28.623Z,100842.94
2022-10-05T07:48:00.210Z,100861.44
2022-10-05T07:50:34.887Z,100850.25
2022-10-05T07:53:07.474Z,100867.09
2022-10-05T07:55:39.843Z,100872.22
2022-10-05T07:58:17.542Z,100860.38
2022-10-05T08:01:13.025Z,100876.56
2022-10-05T08:03:52.248Z,100874.75
2022-10-05T08:06:34.756Z,100848.06
2022-10-05T08:09:08.137Z,100865.50
2022-10-05T08:11:43.607Z,100875.09
2022-10-05T08:14:18.306Z,100876.44
2022-10-05T08:16:49.530Z,100921.59
2022-10-05T08:19:25.199Z,100908.50
2022-10-05T08:21:59.501Z,100928.63
2022-10-05T08:24:41.824Z,100919.75
2022-10-05T08:27:16.135Z,100921.53
2022-10-05T08:29:52.458Z,100912.69
2022-10-05T08:32:24.835Z,100904.34
2022-10-05T08:34:59.873Z,100905.53
2022-10-05T08:37:30.625Z,100929.22
2022-10-05T08:40:21.921Z,100918.88
2022-10-05T08:43:05.402Z,100897.06
2022-10-05T08:46:11.646Z,100903.31
2022-10-05T08:49:13.212Z,100899.72
2022-10-05T08:52:17.088Z,100908.50
2022-10-05T08:55:16.041Z,100897.66
2022-10-05T08:58:08.505Z,100911.19
2022-10-05T09:00:47.341Z,100926.63
2022-10-05T09:03:36.656Z,100943.88
2022-10-05T09:06:30.702Z,100948.78
2022-10-05T09:09:25.811Z,100980.94
2022-10-05T09:12:12.821Z,100985.50
2022-10-05T09:15:20.509Z,101025.69
2022-10-05T09:18:18.353Z,101057.84
2022-10-05T09:20:52.979Z,100997.03
2022-10-05T09:23:37.224Z,101002.44
2022-10-05T09:26:10.315Z,100985.41
2022-10-05T09:28:51.462Z,101016.81
2022-10-05T09:31:37.318Z,101088.69
2022-10-05T09:34:34.904Z,101111.38
2022-10-05T09:37:32.055Z,101147.13
2022-10-05T09:40:33.229Z,101173.19
2022-10-05T09:43:21.204Z,101166.66
2022-10-05T09:46:14.279Z,101226.69
2022-10-05T09:49:06.935Z,101234.69
2022-10-05T09:52:11.044Z,101212.00
2022-10-05T09:55:06.561Z,101164.41
2022-10-05T09:58:07.352Z,101110.69
2022-10-05T10:00:59.576Z,101091.13
2022-10-05T10:04:07.029Z,101038.34
2022-10-05T10:07:05.022Z,101078.31
2022-10-05T10:09:42.510Z,101056.41
2022-10-05T10:12:30.839Z,101036.16
2022-10-05T10:15:26.337Z,101087.22
2022-10-05T10:18:14.697Z,101085.00
2022-10-05T10:21:03.935Z,101127.72
2022-10-05T10:23:50.644Z,101122.28
2022-10-05T10:27:02.689Z,101059.28
2022-10-05T10:30:09.696Z,101052.00
2022-10-05T10:33:11.308Z,101100.09
2022-10-05T10:35:43.219Z,101103.25
2022-10-05T10:38:30.260Z,101124.34
2022-10-05T10:41:31.110Z,101108.94
2022-10-05T10:44:33.663Z,101118.03
2022-10-05T10:47:33.931Z,101153.88
2022-10-05T10:50:25.090Z,101149.09
2022-10-05T10:53:09.969Z,101138.84
2022-10-05T10:55:50.213Z,101121.66
2022-10-05T10:58:54.203Z,101145.38
2022-10-05T11:01:35.289Z,101156.03
2022-10-05T11:04:56.920Z,101195.06
2022-10-05T11:07:50.897Z,101197.91
2022-10-05T11:10:34.980Z,101194.72
2022-10-05T11:13:37.778Z,101213.16
2022-10-05T11:16:22.903Z,101210.22
2022-10-05T11:19:10.955Z,101178.66
2022-10-05T11:21:52.893Z,101137.56
2022-10-05T11:25:00.772Z,101167.84
2022-10-05T11:27:55.602Z,101128.06
2022-10-05T11:30:48.898Z,101122.00
2022-10-05T11:34:07.984Z,101143.69
2022-10-05T11:37:08.178Z,101105.16
2022-10-05T11:39:44.979Z,101128.09
2022-10-05T11:42:45.981Z,101161.00
2022-10-05T11:45:24.954Z,101127.91
2022-10-05T11:48:24.571Z,101171.75
2022-10-05T11:51:19.079Z,101159.81
2022-10-05T11:53:57.525Z,101155.91
2022-10-05T11:59:04.570Z,101107.03
2022-10-05T12:01:43.247Z,101121.88
2022-10-05T12:04:19.914Z,101134.72
2022-10-05T12:07:03.293Z,101130.50
2022-10-05T12:10:07.166Z,101146.84
2022-10-05T12:12:40.141Z,101131.88
2022-10-05T12:15:18.578Z,101150.56
2022-10-05T12:17:52.874Z,101143.56
2022-10-05T12:20:28.126Z,101146.44
2022-10-05T12:23:00.628Z,101123.16
2022-10-05T12:25:35.029Z,101103.38
2022-10-05T12:28:10.217Z,101114.22
2022-10-05T12:30:58.820Z,101099.16
2022-10-05T12:33:35.443Z,101143.91
2022-10-05T12:36:08.914Z,101139.81
2022-10-05T12:38:42.720Z,101113.66
2022-10-05T12:41:19.294Z,101145.59
2022-10-05T12:43:59.889Z,101150.56
2022-10-05T12:46:39.271Z,101165.53
2022-10-05T12:49:29.261Z,101167.69
2022-10-05T12:51:59.437Z,101160.25
2022-10-05T12:54:39.460Z,101181.47
2022-10-05T12:57:19.685Z,101144.56
2022-10-05T12:59:54.863Z,101151.56
2022-10-05T13:02:33.205Z,101123.56
2022-10-05T13:05:18.627Z,101140.56
2022-10-05T13:08:02.409Z,101144.66
2022-10-05T13:10:36.391Z,101139.38
2022-10-05T13:13:17.306Z,101135.88
2022-10-05T13:15:53.666Z,101128.78
2022-10-05T13:18:29.638Z,101149.72
2022-10-05T13:21:05.246Z,101124.59
2022-10-05T13:23:45.874Z,101139.31
2022-10-05T13:26:17.613Z,101154.09
2022-10-05T13:28:52.893Z,101156.53
2022-10-05T13:31:25.778Z,101145.38
2022-10-05T13:34:08.562Z,101116.53
2022-10-05T13:36:48.282Z,101107.25
2022-10-05T13:39:28.351Z,101128.09
2022-10-05T13:42:02.576Z,101115.56
2022-10-05T13:44:36.965Z,101111.19
2022-10-05T13:47:10.811Z,101110.25
2022-10-05T13:52:30.258Z,101122.63
2022-10-05T13:55:02.990Z,101107.28
2022-10-05T13:57:51.521Z,101121.16
2022-10-05T14:00:24.233Z,101112.56
2022-10-05T14:02:56.403Z,101136.53
2022-10-05T14:05:26.817Z,101177.50
2022-10-05T14:07:58.457Z,101157.00
2022-10-05T14:10:38.598Z,101140.50
2022-10-05T14:13:23.436Z,101147.13
2022-10-05T14:16:22.167Z,101138.44
2022-10-05T14:18:55.816Z,101136.56
2022-10-05T14:21:25.258Z,101119.22
2022-10-05T14:23:57.170Z,101135.56
2022-10-05T14:26:36.588Z,101119.00
2022-10-05T14:29:18.515Z,101112.59
2022-10-05T14:31:54.733Z,101093.44
2022-10-05T14:34:32.678Z,101083.53
2022-10-05T14:37:04.757Z,101103.91
2022-10-05T14:39:36.240Z,101104.13
2022-10-05T14:42:15.809Z,101094.47
2022-10-05T14:44:44.308Z,101084.34
2022-10-05T14:47:22.615Z,101091.72
2022-10-05T14:50:10.788Z,101073.13
2022-10-05T14:52:41.123Z,101093.66
2022-10-05T14:55:42.644Z,101074.72
2022-10-05T14:58:25.799Z,101062.25
2022-10-05T15:00:59.485Z,101054.66
2022-10-05T15:03:42.488Z,101066.75
2022-10-05T15:06:21.382Z,101058.44
2022-10-05T15:09:17.038Z,101059.44
2022-10-05T15:11:51.190Z,101049.03
2022-10-05T15:14:22.920Z,101052.16
2022-10-05T15:16:53.891Z,101070.47
2022-10-05T15:19:27.232Z,101037.50
2022-10-05T15:22:14.588Z,101056.16
2022-10-05T15:24:46.671Z,101047.63
2022-10-05T15:27:26.183Z,101034.63
2022-10-05T15:30:04.384Z,101037.66
2022-10-05T15:32:43.926Z,101025.81
2022-10-05T15:35:43.592Z,101016.22
2022-10-05T15:38:22.737Z,101014.75
2022-10-05T15:41:05.707Z,101038.19
2022-10-05T15:43:46.949Z,101018.19
2022-10-05T15:46:19.588Z,101028.97
2022-10-05T15:48:55.476Z,101023.16
2022-10-05T15:51:37.131Z,101011.53
2022-10-05T15:54:28.899Z,101004.88
2022-10-05T15:57:00.388Z,100999.63
2022-10-05T15:59:37.584Z,101010.78
2022-10-05T16:02:15.609Z,101002.09
2022-10-05T16:04:52.760Z,100998.78
2022-10-05T16:07:46.363Z,100980.22
2022-10-05T16:10:18.205Z,100985.03
2022-10-05T16:12:57.995Z,100986.94
2022-10-05T16:15:33.382Z,100995.13
2022-10-05T16:18:18.473Z,100993.13
2022-10-05T16:20:52.354Z,100988.16
2022-10-05T16:23:34.806Z,100983.56
2022-10-05T16:26:16.766Z,101000.53
2022-10-05T16:28:58.424Z,100973.19
2022-10-05T16:31:37.484Z,100986.47
2022-10-05T16:34:18.365Z,101020.44
2022-10-05T16:36:58.780Z,100997.28
2022-10-05T16:39:44.882Z,100980.56
2022-10-05T16:42:23.425Z,100988.03
2022-10-05T16:45:06.746Z,100994.59
2022-10-05T16:47:46.281Z,100986.66
2022-10-05T16:50:24.215Z,100966.50
2022-10-05T16:52:57.994Z,100938.53
2022-10-05T16:55:32.651Z,100902.72
2022-10-05T16:58:03.147Z,100913.47
2022-10-05T17:00:40.763Z,100894.13
2022-10-05T17:03:20.886Z,100882.97
2022-10-05T17:06:05.959Z,100880.75
2022-10-05T17:08:49.279Z,100884.28
2022-10-05T17:11:29.518Z,100890.88
2022-10-05T17:14:18.926Z,100882.84
2022-10-05T17:17:01.377Z,100871.69
2022-10-05T17:19:46.664Z,100875.00
2022-10-05T17:22:26.381Z,100861.44
2022-10-05T17:25:02.759Z,100887.09
2022-10-05T17:27:36.428Z,100899.19
2022-10-05T17:30:41.895Z,100920.63
2022-10-05T17:33:26.147Z,100910.06
2022-10-05T17:36:30.663Z,100920.00
2022-10-05T17:39:15.652Z,100916.63
2022-10-05T17:41:44.220Z,100906.13
2022-10-05T17:44:26.435Z,100925.34
2022-10-05T17:46:57.231Z,100902.69
2022-10-05T17:50:14.694Z,100901.97
2022-10-05T17:53:02.403Z,100887.84
2022-10-05T17:55:45.490Z,100917.59
2022-10-05T17:59:02.321Z,100923.84
2022-10-05T18:01:34.787Z,100926.44
2022-10-05T18:04:38.488Z,100939.84
2022-10-05T18:07:24.951Z,100956.28
2022-10-05T18:10:17.290Z,100926.81
2022-10-05T18:12:51.611Z,100933.00
2022-10-05T18:15:45.947Z,100919.69
2022-10-05T18:18:56.638Z,100928.38
2022-10-05T18:21:37.645Z,100926.91
2022-10-05T18:24:44.370Z,100942.72
2022-10-05T18:27:44.797Z,100918.03
2022-10-05T18:30:21.103Z,100908.72
2022-10-05T18:33:27.179Z,100906.06
2022-10-05T18:36:06.930Z,100895.22
2022-10-05T18:38:46.462Z,100898.19
2022-10-05T18:41:23.695Z,100868.00
2022-10-05T18:44:03.453Z,100896.88
2022-10-05T18:46:45.938Z,100870.47
2022-10-05T18:49:31.040Z,100893.47
2022-10-05T18:52:08.439Z,100860.41
2022-10-05T18:54:48.085Z,100893.00
2022-10-05T18:57:45.008Z,100878.88
2022-10-05T19:00:17.516Z,100866.00
2022-10-05T19:02:51.947Z,100854.41
2022-10-05T19:05:48.047Z,100851.81
2022-10-05T19:08:28.696Z,100830.03
2022-10-05T19:11:02.908Z,100835.94
2022-10-05T19:13:42.502Z,100829.69
2022-10-05T19:16:28.237Z,100859.75
2022-10-05T19:19:10.748Z,100829.13
2022-10-05T19:21:48.173Z,100835.22
2022-10-05T19:24:40.677Z,100830.03
2022-10-05T19:27:14.795Z,100813.63
2022-10-05T19:30:10.688Z,100805.16
2022-10-05T19:32:54.876Z,100809.38
2022-10-05T19:35:33.250Z,100804.50
2022-10-05T19:38:15.844Z,100781.19
2022-10-05T19:40:53.417Z,100818.44
2022-10-05T19:43:36.433Z,100787.00
2022-10-05T19:46:19.009Z,100795.63
2022-10-05T19:48:50.037Z,100774.44
2022-10-05T19:51:30.890Z,100770.44
2022-10-05T19:54:02.254Z,100783.34
2022-10-05T19:56:34.024Z,100763.28
2022-10-05T19:59:13.228Z,100760.75
2022-10-05T20:01:48.864Z,100745.94
2022-10-05T20:04:38.145Z,100741.44
2022-10-05T20:07:12.293Z,100729.03
2022-10-05T20:09:51.845Z,100712.59
2022-10-05T20:12:22.557Z,100702.94
2022-10-05T20:15:23.538Z,100706.66
2022-10-05T20:18:09.394Z,100693.72
2022-10-05T20:20:43.259Z,100679.47
2022-10-05T20:23:25.741Z,100687.75
2022-10-05T20:26:11.404Z,100696.34
2022-10-05T20:28:39.406Z,100699.59
2022-10-05T20:31:08.629Z,100687.00
2022-10-05T20:33:36.519Z,100691.34
2022-10-05T20:36:04.742Z,100690.34
2022-10-05T20:38:40.056Z,100672.44
2022-10-05T20:41:09.003Z,100666.56
2022-10-05T20:43:38.977Z,100644.47
2022-10-05T20:46:07.616Z,100692.22
2022-10-05T20:48:36.035Z,100706.38
2022-10-05T20:51:03.722Z,100692.03
2022-10-05T20:53:33.543Z,100718.09
2022-10-05T20:56:02.503Z,100664.19
2022-10-05T20:58:30.748Z,100672.66
2022-10-05T21:01:18.987Z,100682.16
2022-10-05T21:03:47.532Z,100700.41
2022-10-05T21:06:15.209Z,100697.22
2022-10-05T21:08:46.307Z,100681.09
2022-10-05T21:11:14.491Z,100677.41
2022-10-05T21:13:44.721Z,100678.91
2022-10-05T21:16:13.490Z,100669.09
2022-10-05T21:18:41.373Z,100670.13
2022-10-05T21:21:09.122Z,100669.44
2022-10-05T21:23:36.887Z,100663.94
2022-10-05T21:26:07.848Z,100660.13
2022-10-05T21:28:35.656Z,100651.88
2022-10-05T21:31:03.422Z,100640.84
2022-10-05T21:33:31.422Z,100634.19
2022-10-05T21:35:59.647Z,100646.22
2022-10-05T21:38:27.841Z,100663.78
2022-10-05T21:40:56.377Z,100663.25
2022-10-05T21:43:25.966Z,100662.44
2022-10-05T21:45:55.578Z,100670.47
2022-10-05T21:48:24.395Z,100667.31
2022-10-05T21:50:52.292Z,100682.53
2022-10-05T21:53:23.853Z,100668.44
2022-10-05T21:55:52.582Z,100665.69
2022-10-05T21:58:22.839Z,100674.06
2022-10-05T22:00:51.955Z,100682.09
2022-10-05T22:03:20.236Z,100685.06
2022-10-05T22:05:48.472Z,100692.03
2022-10-05T22:08:22.270Z,100685.75
2022-10-05T22:10:50.273Z,100676.22
2022-10-05T22:13:18.564Z,100682.44
2022-10-05T22:15:46.268Z,100690.84
2022-10-05T22:18:19.012Z,100702.31
2022-10-05T22:20:47.131Z,100692.22
2022-10-05T22:23:14.881Z,100699.03
2022-10-05T22:25:43.377Z,100717.66
2022-10-05T22:28:14.585Z,100689.56
2022-10-05T22:30:44.570Z,100697.03
2022-10-05T22:33:12.279Z,100686.63
2022-10-05T22:35:41.502Z,100695.47
2022-10-05T22:38:09.245Z,100694.28
2022-10-05T22:40:37.463Z,100692.81
2022-10-05T22:43:05.172Z,100703.66
2022-10-05T22:45:32.975Z,100707.00
2022-10-05T22:48:00.715Z,100687.06
2022-10-05T22:50:28.390Z,100683.78
2022-10-05T22:52:57.437Z,100679.50
2022-10-05T22:55:25.572Z,100670.28
2022-10-05T22:57:53.458Z,100675.19
2022-10-05T23:00:27.610Z,100679.44
2022-10-05T23:02:59.030Z,100697.69
2022-10-05T23:05:26.859Z,100684.88
2022-10-05T23:07:54.578Z,100686.53
2022-10-05T23:10:24.264Z,100693.28
2022-10-05T23:13:00.345Z,100696.13
2022-10-05T23:15:28.832Z,100712.38
2022-10-05T23:17:57.577Z,100732.94
2022-10-05T23:20:25.988Z,100708.91
2022-10-05T23:22:53.791Z,100726.41
2022-10-05T23:25:23.217Z,100725.63
2022-10-05T23:27:51.045Z,100733.44
2022-10-05T23:30:18.916Z,100725.91
2022-10-05T23:32:46.938Z,100723.88
2022-10-05T23:35:14.755Z,100735.69
2022-10-05T23:37:44.365Z,100739.28
2022-10-05T23:40:14.367Z,100740.84
2022-10-05T23:42:43.529Z,100743.88
2022-10-05T23:45:12.651Z,100748.75
2022-10-05T23:47:41.073Z,100767.69
2022-10-05T23:50:10.712Z,100757.47
2022-10-05T23:52:38.921Z,100753.59
2022-10-05T23:55:07.739Z,100738.50
2022-10-05T23:57:35.432Z,100753.81
